Hoboken, Belgium
Current Conditions -  °F | °C
As of 11:50 AM on Friday 19 Dec 2014 (Local Time) from EBAW Reporting Station
Light Rain Light Rain  
Wind Chill:   Ceiling: 1500
Heat Index:   Visibility: 4mi
Dew Point:   Wind: 13mph
Humidity: 87%   Direction: 330°NNW
Pressure: 29.88"   Gusts: NA
Location:  51.18°N, 4.35°E
Report Text: EBAW 191050Z 33011KT 290V350 6000 -DZRA FEW008 SCT011 BKN015 09/07 Q1012 TEMPO 23017G27KT 2500 DZRA BKN007
Loading
Personal Weather Stations






























Interactive Weather Map New forecast layout! Learn more

10-Day Weather Forecast

Advertisements
Track Severe Weather on mobile